sensor_id;sensor_type;location;lat;lon;timestamp;P1;durP1;ratioP1;P2;durP2;ratioP2
10945;SDS011;5525;42.648;23.368;2022-09-27T00:01:17;11.60;;;10.35;;
10945;SDS011;5525;42.648;23.368;2022-09-27T00:03:43;11.30;;;9.75;;
10945;SDS011;5525;42.648;23.368;2022-09-27T00:06:12;10.90;;;9.80;;
10945;SDS011;5525;42.648;23.368;2022-09-27T00:08:40;10.93;;;9.65;;
10945;SDS011;5525;42.648;23.368;2022-09-27T00:11:09;11.05;;;9.27;;
10945;SDS011;5525;42.648;23.368;2022-09-27T00:13:40;12.35;;;9.65;;
10945;SDS011;5525;42.648;23.368;2022-09-27T00:16:08;13.57;;;11.10;;
10945;SDS011;5525;42.648;23.368;2022-09-27T00:18:36;11.00;;;9.88;;
10945;SDS011;5525;42.648;23.368;2022-09-27T00:21:04;11.88;;;10.68;;
10945;SDS011;5525;42.648;23.368;2022-09-27T00:23:32;11.90;;;10.65;;
10945;SDS011;5525;42.648;23.368;2022-09-27T00:25:59;11.77;;;10.57;;
10945;SDS011;5525;42.648;23.368;2022-09-27T00:28:26;15.27;;;11.65;;
10945;SDS011;5525;42.648;23.368;2022-09-27T00:30:55;12.82;;;11.35;;
10945;SDS011;5525;42.648;23.368;2022-09-27T00:33:22;12.45;;;10.38;;
10945;SDS011;5525;42.648;23.368;2022-09-27T00:35:50;12.10;;;10.70;;
10945;SDS011;5525;42.648;23.368;2022-09-27T00:38:17;12.25;;;11.05;;
10945;SDS011;5525;42.648;23.368;2022-09-27T00:40:44;11.10;;;9.98;;
10945;SDS011;5525;42.648;23.368;2022-09-27T00:43:15;11.95;;;10.48;;
10945;SDS011;5525;42.648;23.368;2022-09-27T00:45:46;11.43;;;9.80;;
10945;SDS011;5525;42.648;23.368;2022-09-27T00:48:17;11.63;;;10.43;;
10945;SDS011;5525;42.648;23.368;2022-09-27T00:50:48;10.40;;;9.30;;
10945;SDS011;5525;42.648;23.368;2022-09-27T00:53:21;10.63;;;9.13;;
10945;SDS011;5525;42.648;23.368;2022-09-27T00:55:54;12.02;;;9.55;;
10945;SDS011;5525;42.648;23.368;2022-09-27T00:58:26;10.40;;;8.82;;
10945;SDS011;5525;42.648;23.368;2022-09-27T01:00:56;11.15;;;10.00;;
10945;SDS011;5525;42.648;23.368;2022-09-27T01:03:29;14.23;;;10.05;;
10945;SDS011;5525;42.648;23.368;2022-09-27T01:06:03;11.13;;;9.65;;
10945;SDS011;5525;42.648;23.368;2022-09-27T01:08:33;11.30;;;10.10;;
10945;SDS011;5525;42.648;23.368;2022-09-27T01:11:08;10.77;;;9.65;;
10945;SDS011;5525;42.648;23.368;2022-09-27T01:13:42;13.57;;;10.20;;
10945;SDS011;5525;42.648;23.368;2022-09-27T01:16:20;11.60;;;10.40;;
10945;SDS011;5525;42.648;23.368;2022-09-27T01:18:58;11.38;;;10.18;;
10945;SDS011;5525;42.648;23.368;2022-09-27T01:21:38;12.55;;;10.45;;
10945;SDS011;5525;42.648;23.368;2022-09-27T01:30:26;12.20;;;11.00;;
10945;SDS011;5525;42.648;23.368;2022-09-27T01:35:57;13.13;;;11.52;;
10945;SDS011;5525;42.648;23.368;2022-09-27T01:38:33;14.27;;;10.73;;
10945;SDS011;5525;42.648;23.368;2022-09-27T01:41:10;12.00;;;10.80;;
10945;SDS011;5525;42.648;23.368;2022-09-27T01:43:44;13.50;;;10.68;;
10945;SDS011;5525;42.648;23.368;2022-09-27T01:46:21;12.80;;;11.52;;
10945;SDS011;5525;42.648;23.368;2022-09-27T01:48:51;14.85;;;11.85;;
10945;SDS011;5525;42.648;23.368;2022-09-27T01:51:21;13.23;;;11.90;;
10945;SDS011;5525;42.648;23.368;2022-09-27T01:53:55;15.23;;;11.70;;
10945;SDS011;5525;42.648;23.368;2022-09-27T01:56:29;14.02;;;12.60;;
10945;SDS011;5525;42.648;23.368;2022-09-27T01:59:00;16.23;;;12.48;;
10945;SDS011;5525;42.648;23.368;2022-09-27T02:01:34;14.02;;;12.60;;
10945;SDS011;5525;42.648;23.368;2022-09-27T02:04:04;14.50;;;12.95;;
10945;SDS011;5525;42.648;23.368;2022-09-27T02:06:36;14.70;;;12.65;;
10945;SDS011;5525;42.648;23.368;2022-09-27T02:09:07;15.48;;;12.85;;
10945;SDS011;5525;42.648;23.368;2022-09-27T02:11:38;14.00;;;12.52;;
10945;SDS011;5525;42.648;23.368;2022-09-27T02:14:11;15.65;;;13.40;;
10945;SDS011;5525;42.648;23.368;2022-09-27T02:16:47;15.00;;;13.45;;
10945;SDS011;5525;42.648;23.368;2022-09-27T02:19:18;15.30;;;13.30;;
10945;SDS011;5525;42.648;23.368;2022-09-27T02:21:54;15.55;;;13.45;;
10945;SDS011;5525;42.648;23.368;2022-09-27T02:24:34;16.48;;;13.95;;
10945;SDS011;5525;42.648;23.368;2022-09-27T02:27:08;16.48;;;13.40;;
10945;SDS011;5525;42.648;23.368;2022-09-27T02:29:44;16.38;;;13.95;;
10945;SDS011;5525;42.648;23.368;2022-09-27T02:32:17;15.75;;;13.27;;
10945;SDS011;5525;42.648;23.368;2022-09-27T02:34:44;16.40;;;13.95;;
10945;SDS011;5525;42.648;23.368;2022-09-27T02:37:14;15.02;;;13.43;;
10945;SDS011;5525;42.648;23.368;2022-09-27T02:39:41;18.23;;;14.93;;
10945;SDS011;5525;42.648;23.368;2022-09-27T02:42:08;15.55;;;13.32;;
10945;SDS011;5525;42.648;23.368;2022-09-27T02:44:36;16.35;;;13.60;;
10945;SDS011;5525;42.648;23.368;2022-09-27T02:47:18;16.25;;;13.40;;
10945;SDS011;5525;42.648;23.368;2022-09-27T02:50:00;17.08;;;14.40;;
10945;SDS011;5525;42.648;23.368;2022-09-27T02:52:42;16.42;;;14.23;;
10945;SDS011;5525;42.648;23.368;2022-09-27T02:55:17;16.65;;;14.18;;
10945;SDS011;5525;42.648;23.368;2022-09-27T02:57:52;16.80;;;14.30;;
10945;SDS011;5525;42.648;23.368;2022-09-27T03:00:29;16.13;;;14.43;;
10945;SDS011;5525;42.648;23.368;2022-09-27T03:03:04;16.20;;;14.60;;
10945;SDS011;5525;42.648;23.368;2022-09-27T03:05:37;17.55;;;14.82;;
10945;SDS011;5525;42.648;23.368;2022-09-27T03:08:06;17.02;;;14.55;;
10945;SDS011;5525;42.648;23.368;2022-09-27T03:10:35;17.67;;;14.30;;
10945;SDS011;5525;42.648;23.368;2022-09-27T03:13:02;18.50;;;15.02;;
10945;SDS011;5525;42.648;23.368;2022-09-27T03:15:30;18.20;;;15.32;;
10945;SDS011;5525;42.648;23.368;2022-09-27T03:17:57;19.65;;;15.38;;
10945;SDS011;5525;42.648;23.368;2022-09-27T03:20:25;19.92;;;16.15;;
10945;SDS011;5525;42.648;23.368;2022-09-27T03:22:53;19.52;;;16.25;;
10945;SDS011;5525;42.648;23.368;2022-09-27T03:25:20;19.65;;;16.45;;
10945;SDS011;5525;42.648;23.368;2022-09-27T03:27:47;19.40;;;16.35;;
10945;SDS011;5525;42.648;23.368;2022-09-27T03:30:15;18.20;;;16.30;;
10945;SDS011;5525;42.648;23.368;2022-09-27T03:32:42;17.55;;;15.68;;
10945;SDS011;5525;42.648;23.368;2022-09-27T03:35:09;18.70;;;15.98;;
10945;SDS011;5525;42.648;23.368;2022-09-27T03:37:38;18.15;;;16.20;;
10945;SDS011;5525;42.648;23.368;2022-09-27T03:40:05;19.50;;;16.33;;
10945;SDS011;5525;42.648;23.368;2022-09-27T03:42:33;18.35;;;16.02;;
10945;SDS011;5525;42.648;23.368;2022-09-27T03:45:00;18.90;;;16.58;;
10945;SDS011;5525;42.648;23.368;2022-09-27T03:47:27;22.38;;;17.45;;
10945;SDS011;5525;42.648;23.368;2022-09-27T03:49:54;19.65;;;16.73;;
10945;SDS011;5525;42.648;23.368;2022-09-27T03:52:21;22.05;;;16.70;;
10945;SDS011;5525;42.648;23.368;2022-09-27T03:54:49;19.48;;;16.23;;
10945;SDS011;5525;42.648;23.368;2022-09-27T03:57:16;20.38;;;17.52;;
10945;SDS011;5525;42.648;23.368;2022-09-27T03:59:43;19.80;;;17.63;;
10945;SDS011;5525;42.648;23.368;2022-09-27T04:02:10;22.50;;;18.63;;
10945;SDS011;5525;42.648;23.368;2022-09-27T04:04:37;24.73;;;19.42;;
10945;SDS011;5525;42.648;23.368;2022-09-27T04:07:04;25.65;;;19.25;;
10945;SDS011;5525;42.648;23.368;2022-09-27T04:09:32;26.38;;;20.30;;
10945;SDS011;5525;42.648;23.368;2022-09-27T04:12:01;24.55;;;19.30;;
10945;SDS011;5525;42.648;23.368;2022-09-27T04:14:28;26.15;;;21.35;;
10945;SDS011;5525;42.648;23.368;2022-09-27T04:16:55;27.15;;;20.48;;
10945;SDS011;5525;42.648;23.368;2022-09-27T04:19:22;23.75;;;20.13;;
10945;SDS011;5525;42.648;23.368;2022-09-27T04:21:49;28.90;;;20.92;;
10945;SDS011;5525;42.648;23.368;2022-09-27T04:24:16;25.35;;;20.73;;
10945;SDS011;5525;42.648;23.368;2022-09-27T04:26:43;28.58;;;22.38;;
10945;SDS011;5525;42.648;23.368;2022-09-27T04:29:12;27.35;;;22.40;;
10945;SDS011;5525;42.648;23.368;2022-09-27T04:31:40;29.00;;;22.85;;
10945;SDS011;5525;42.648;23.368;2022-09-27T04:34:08;28.05;;;23.13;;
10945;SDS011;5525;42.648;23.368;2022-09-27T04:36:35;29.65;;;23.02;;
10945;SDS011;5525;42.648;23.368;2022-09-27T04:39:02;28.17;;;22.80;;
10945;SDS011;5525;42.648;23.368;2022-09-27T04:41:31;30.30;;;22.73;;
10945;SDS011;5525;42.648;23.368;2022-09-27T04:44:00;29.40;;;23.30;;
10945;SDS011;5525;42.648;23.368;2022-09-27T04:46:28;28.30;;;23.08;;
10945;SDS011;5525;42.648;23.368;2022-09-27T04:48:56;30.08;;;24.50;;
10945;SDS011;5525;42.648;23.368;2022-09-27T04:51:23;31.52;;;24.75;;
10945;SDS011;5525;42.648;23.368;2022-09-27T04:53:51;29.27;;;23.45;;
10945;SDS011;5525;42.648;23.368;2022-09-27T04:56:18;29.35;;;23.45;;
10945;SDS011;5525;42.648;23.368;2022-09-27T04:58:45;29.33;;;23.98;;
10945;SDS011;5525;42.648;23.368;2022-09-27T05:01:12;27.75;;;23.13;;
10945;SDS011;5525;42.648;23.368;2022-09-27T05:03:40;27.42;;;23.70;;
10945;SDS011;5525;42.648;23.368;2022-09-27T05:06:07;28.17;;;22.70;;
10945;SDS011;5525;42.648;23.368;2022-09-27T05:08:33;27.33;;;23.17;;
10945;SDS011;5525;42.648;23.368;2022-09-27T05:11:00;28.90;;;22.90;;
10945;SDS011;5525;42.648;23.368;2022-09-27T05:13:27;30.13;;;23.15;;
10945;SDS011;5525;42.648;23.368;2022-09-27T05:15:54;27.30;;;22.52;;
10945;SDS011;5525;42.648;23.368;2022-09-27T05:18:27;28.17;;;23.85;;
10945;SDS011;5525;42.648;23.368;2022-09-27T05:20:56;29.50;;;22.98;;
10945;SDS011;5525;42.648;23.368;2022-09-27T05:23:29;28.40;;;22.75;;
10945;SDS011;5525;42.648;23.368;2022-09-27T05:26:02;27.38;;;22.65;;
10945;SDS011;5525;42.648;23.368;2022-09-27T05:28:29;29.52;;;23.38;;
10945;SDS011;5525;42.648;23.368;2022-09-27T05:30:59;27.38;;;22.70;;
10945;SDS011;5525;42.648;23.368;2022-09-27T05:33:26;27.67;;;23.90;;
10945;SDS011;5525;42.648;23.368;2022-09-27T05:35:54;27.85;;;23.65;;
10945;SDS011;5525;42.648;23.368;2022-09-27T05:38:23;27.63;;;23.90;;
10945;SDS011;5525;42.648;23.368;2022-09-27T05:40:50;29.70;;;24.20;;
10945;SDS011;5525;42.648;23.368;2022-09-27T05:43:17;29.92;;;23.92;;
10945;SDS011;5525;42.648;23.368;2022-09-27T05:45:45;25.08;;;22.13;;
10945;SDS011;5525;42.648;23.368;2022-09-27T05:48:12;29.52;;;23.48;;
10945;SDS011;5525;42.648;23.368;2022-09-27T05:50:39;30.15;;;23.00;;
10945;SDS011;5525;42.648;23.368;2022-09-27T05:53:08;29.17;;;23.08;;
10945;SDS011;5525;42.648;23.368;2022-09-27T05:55:35;27.48;;;22.40;;
10945;SDS011;5525;42.648;23.368;2022-09-27T05:58:03;26.73;;;21.92;;
10945;SDS011;5525;42.648;23.368;2022-09-27T06:00:31;25.75;;;22.15;;
10945;SDS011;5525;42.648;23.368;2022-09-27T06:02:59;31.45;;;23.15;;
10945;SDS011;5525;42.648;23.368;2022-09-27T06:05:28;24.65;;;21.27;;
10945;SDS011;5525;42.648;23.368;2022-09-27T06:07:57;36.83;;;26.73;;
10945;SDS011;5525;42.648;23.368;2022-09-27T06:10:27;36.28;;;27.92;;
10945;SDS011;5525;42.648;23.368;2022-09-27T06:12:57;28.23;;;24.88;;
10945;SDS011;5525;42.648;23.368;2022-09-27T06:15:25;28.92;;;25.75;;
10945;SDS011;5525;42.648;23.368;2022-09-27T06:17:52;25.17;;;22.27;;
10945;SDS011;5525;42.648;23.368;2022-09-27T06:20:19;26.38;;;21.23;;
10945;SDS011;5525;42.648;23.368;2022-09-27T06:22:46;23.65;;;20.60;;
10945;SDS011;5525;42.648;23.368;2022-09-27T06:25:17;28.30;;;21.55;;
10945;SDS011;5525;42.648;23.368;2022-09-27T06:27:46;28.40;;;22.88;;
10945;SDS011;5525;42.648;23.368;2022-09-27T06:30:12;25.98;;;21.42;;
10945;SDS011;5525;42.648;23.368;2022-09-27T06:32:39;28.55;;;23.27;;
10945;SDS011;5525;42.648;23.368;2022-09-27T06:35:07;27.17;;;23.67;;
10945;SDS011;5525;42.648;23.368;2022-09-27T06:37:34;26.35;;;21.70;;
10945;SDS011;5525;42.648;23.368;2022-09-27T06:40:05;25.17;;;21.73;;
10945;SDS011;5525;42.648;23.368;2022-09-27T06:42:40;24.83;;;20.50;;
10945;SDS011;5525;42.648;23.368;2022-09-27T06:45:28;28.25;;;22.20;;
10945;SDS011;5525;42.648;23.368;2022-09-27T06:47:55;27.88;;;22.85;;
10945;SDS011;5525;42.648;23.368;2022-09-27T06:50:22;32.58;;;26.40;;
10945;SDS011;5525;42.648;23.368;2022-09-27T06:52:49;31.67;;;25.67;;
10945;SDS011;5525;42.648;23.368;2022-09-27T06:55:16;27.85;;;22.85;;
10945;SDS011;5525;42.648;23.368;2022-09-27T06:57:43;24.08;;;19.83;;
10945;SDS011;5525;42.648;23.368;2022-09-27T07:00:28;22.88;;;20.45;;
10945;SDS011;5525;42.648;23.368;2022-09-27T07:02:56;22.45;;;18.65;;
10945;SDS011;5525;42.648;23.368;2022-09-27T07:05:25;22.67;;;18.92;;
10945;SDS011;5525;42.648;23.368;2022-09-27T07:07:52;32.08;;;24.92;;
10945;SDS011;5525;42.648;23.368;2022-09-27T07:10:22;21.45;;;19.00;;
10945;SDS011;5525;42.648;23.368;2022-09-27T07:12:49;23.38;;;19.25;;
10945;SDS011;5525;42.648;23.368;2022-09-27T07:15:16;22.42;;;19.20;;
10945;SDS011;5525;42.648;23.368;2022-09-27T07:17:46;23.38;;;20.23;;
10945;SDS011;5525;42.648;23.368;2022-09-27T07:20:13;21.80;;;18.85;;
10945;SDS011;5525;42.648;23.368;2022-09-27T07:22:41;27.10;;;21.45;;
10945;SDS011;5525;42.648;23.368;2022-09-27T07:25:09;23.42;;;20.63;;
10945;SDS011;5525;42.648;23.368;2022-09-27T07:27:36;25.38;;;21.17;;
10945;SDS011;5525;42.648;23.368;2022-09-27T07:30:06;22.83;;;20.33;;
10945;SDS011;5525;42.648;23.368;2022-09-27T07:32:34;22.63;;;19.60;;
10945;SDS011;5525;42.648;23.368;2022-09-27T07:35:03;22.50;;;19.40;;
10945;SDS011;5525;42.648;23.368;2022-09-27T07:37:32;22.38;;;18.88;;
10945;SDS011;5525;42.648;23.368;2022-09-27T07:40:00;18.80;;;16.80;;
10945;SDS011;5525;42.648;23.368;2022-09-27T07:42:29;20.30;;;16.98;;
10945;SDS011;5525;42.648;23.368;2022-09-27T07:44:56;20.70;;;18.42;;
10945;SDS011;5525;42.648;23.368;2022-09-27T07:47:24;28.20;;;21.25;;
10945;SDS011;5525;42.648;23.368;2022-09-27T07:49:51;26.58;;;21.15;;
10945;SDS011;5525;42.648;23.368;2022-09-27T07:52:20;22.58;;;19.73;;
10945;SDS011;5525;42.648;23.368;2022-09-27T07:54:47;23.90;;;20.52;;
10945;SDS011;5525;42.648;23.368;2022-09-27T07:57:14;35.65;;;27.77;;
10945;SDS011;5525;42.648;23.368;2022-09-27T07:59:41;33.58;;;26.90;;
10945;SDS011;5525;42.648;23.368;2022-09-27T08:02:08;28.58;;;25.00;;
10945;SDS011;5525;42.648;23.368;2022-09-27T08:04:39;26.23;;;22.45;;
10945;SDS011;5525;42.648;23.368;2022-09-27T08:07:07;26.50;;;23.10;;
10945;SDS011;5525;42.648;23.368;2022-09-27T08:09:38;27.60;;;22.98;;
10945;SDS011;5525;42.648;23.368;2022-09-27T08:12:06;28.05;;;23.05;;
10945;SDS011;5525;42.648;23.368;2022-09-27T08:14:33;26.40;;;23.20;;
10945;SDS011;5525;42.648;23.368;2022-09-27T08:17:00;29.05;;;24.13;;
10945;SDS011;5525;42.648;23.368;2022-09-27T08:19:27;22.50;;;19.83;;
10945;SDS011;5525;42.648;23.368;2022-09-27T08:21:54;27.58;;;22.63;;
10945;SDS011;5525;42.648;23.368;2022-09-27T08:24:22;25.77;;;21.58;;
10945;SDS011;5525;42.648;23.368;2022-09-27T08:26:50;25.90;;;22.02;;
10945;SDS011;5525;42.648;23.368;2022-09-27T08:29:17;23.83;;;21.17;;
10945;SDS011;5525;42.648;23.368;2022-09-27T08:31:43;29.50;;;22.75;;
10945;SDS011;5525;42.648;23.368;2022-09-27T08:34:11;27.15;;;22.95;;
10945;SDS011;5525;42.648;23.368;2022-09-27T08:36:38;26.30;;;23.42;;
10945;SDS011;5525;42.648;23.368;2022-09-27T08:39:05;25.58;;;21.60;;
10945;SDS011;5525;42.648;23.368;2022-09-27T08:41:34;23.60;;;21.15;;
10945;SDS011;5525;42.648;23.368;2022-09-27T08:44:08;25.85;;;22.52;;
10945;SDS011;5525;42.648;23.368;2022-09-27T08:46:46;29.45;;;24.88;;
10945;SDS011;5525;42.648;23.368;2022-09-27T08:49:22;25.40;;;22.75;;
10945;SDS011;5525;42.648;23.368;2022-09-27T08:51:52;23.83;;;20.75;;
10945;SDS011;5525;42.648;23.368;2022-09-27T08:54:22;24.92;;;22.23;;
10945;SDS011;5525;42.648;23.368;2022-09-27T08:56:54;23.80;;;21.30;;
10945;SDS011;5525;42.648;23.368;2022-09-27T08:59:29;23.25;;;20.17;;
10945;SDS011;5525;42.648;23.368;2022-09-27T09:02:01;22.25;;;19.95;;
10945;SDS011;5525;42.648;23.368;2022-09-27T09:04:29;24.42;;;21.50;;
10945;SDS011;5525;42.648;23.368;2022-09-27T09:07:04;23.85;;;21.35;;
10945;SDS011;5525;42.648;23.368;2022-09-27T09:09:41;24.30;;;20.75;;
10945;SDS011;5525;42.648;23.368;2022-09-27T09:12:19;23.33;;;21.02;;
10945;SDS011;5525;42.648;23.368;2022-09-27T09:15:16;22.98;;;20.58;;
10945;SDS011;5525;42.648;23.368;2022-09-27T09:17:54;23.95;;;21.27;;
10945;SDS011;5525;42.648;23.368;2022-09-27T09:20:33;24.67;;;22.08;;
10945;SDS011;5525;42.648;23.368;2022-09-27T09:23:22;26.13;;;23.33;;
10945;SDS011;5525;42.648;23.368;2022-09-27T09:26:04;27.60;;;23.90;;
10945;SDS011;5525;42.648;23.368;2022-09-27T09:28:42;26.70;;;23.10;;
10945;SDS011;5525;42.648;23.368;2022-09-27T09:31:23;26.52;;;23.80;;
10945;SDS011;5525;42.648;23.368;2022-09-27T09:33:58;27.08;;;24.15;;
10945;SDS011;5525;42.648;23.368;2022-09-27T09:36:36;27.73;;;24.55;;
10945;SDS011;5525;42.648;23.368;2022-09-27T09:39:10;27.50;;;23.80;;
10945;SDS011;5525;42.648;23.368;2022-09-27T09:41:42;26.13;;;23.38;;
10945;SDS011;5525;42.648;23.368;2022-09-27T09:44:14;23.75;;;21.25;;
10945;SDS011;5525;42.648;23.368;2022-09-27T09:46:46;22.83;;;20.33;;
10945;SDS011;5525;42.648;23.368;2022-09-27T09:49:22;22.25;;;19.13;;
10945;SDS011;5525;42.648;23.368;2022-09-27T09:51:55;24.95;;;20.95;;
10945;SDS011;5525;42.648;23.368;2022-09-27T09:54:28;21.98;;;19.52;;
10945;SDS011;5525;42.648;23.368;2022-09-27T09:56:59;23.92;;;20.17;;
10945;SDS011;5525;42.648;23.368;2022-09-27T09:59:32;21.35;;;16.83;;
10945;SDS011;5525;42.648;23.368;2022-09-27T10:02:24;20.05;;;17.95;;
10945;SDS011;5525;42.648;23.368;2022-09-27T10:04:56;21.27;;;18.65;;
10945;SDS011;5525;42.648;23.368;2022-09-27T10:07:23;20.23;;;17.77;;
10945;SDS011;5525;42.648;23.368;2022-09-27T10:09:52;20.00;;;16.67;;
10945;SDS011;5525;42.648;23.368;2022-09-27T10:12:22;18.85;;;16.95;;
10945;SDS011;5525;42.648;23.368;2022-09-27T10:14:49;20.38;;;18.15;;
10945;SDS011;5525;42.648;23.368;2022-09-27T10:17:21;18.35;;;16.55;;
10945;SDS011;5525;42.648;23.368;2022-09-27T10:19:51;18.23;;;16.27;;
10945;SDS011;5525;42.648;23.368;2022-09-27T10:22:21;18.83;;;16.83;;
10945;SDS011;5525;42.648;23.368;2022-09-27T10:24:53;17.08;;;14.63;;
10945;SDS011;5525;42.648;23.368;2022-09-27T10:27:22;16.27;;;14.57;;
10945;SDS011;5525;42.648;23.368;2022-09-27T10:29:59;17.98;;;16.10;;
10945;SDS011;5525;42.648;23.368;2022-09-27T10:32:29;18.08;;;16.05;;
10945;SDS011;5525;42.648;23.368;2022-09-27T10:35:19;20.80;;;18.70;;
10945;SDS011;5525;42.648;23.368;2022-09-27T10:37:47;19.95;;;17.95;;
10945;SDS011;5525;42.648;23.368;2022-09-27T10:40:24;19.27;;;16.92;;
10945;SDS011;5525;42.648;23.368;2022-09-27T10:42:52;19.38;;;17.38;;
10945;SDS011;5525;42.648;23.368;2022-09-27T10:45:23;19.58;;;17.52;;
10945;SDS011;5525;42.648;23.368;2022-09-27T10:47:55;19.83;;;17.85;;
10945;SDS011;5525;42.648;23.368;2022-09-27T10:50:24;19.20;;;15.88;;
10945;SDS011;5525;42.648;23.368;2022-09-27T10:52:59;14.73;;;13.10;;
10945;SDS011;5525;42.648;23.368;2022-09-27T10:55:28;13.73;;;12.25;;
10945;SDS011;5525;42.648;23.368;2022-09-27T10:57:59;13.48;;;12.07;;
10945;SDS011;5525;42.648;23.368;2022-09-27T11:00:29;13.35;;;11.98;;
10945;SDS011;5525;42.648;23.368;2022-09-27T11:03:00;13.65;;;12.43;;
10945;SDS011;5525;42.648;23.368;2022-09-27T11:05:33;13.27;;;11.13;;
10945;SDS011;5525;42.648;23.368;2022-09-27T11:08:18;13.15;;;11.93;;
10945;SDS011;5525;42.648;23.368;2022-09-27T11:10:59;13.73;;;12.43;;
10945;SDS011;5525;42.648;23.368;2022-09-27T11:13:28;15.05;;;13.50;;
10945;SDS011;5525;42.648;23.368;2022-09-27T11:16:06;14.50;;;12.85;;
10945;SDS011;5525;42.648;23.368;2022-09-27T11:18:51;14.77;;;13.38;;
10945;SDS011;5525;42.648;23.368;2022-09-27T11:21:27;15.05;;;13.55;;
10945;SDS011;5525;42.648;23.368;2022-09-27T11:27:06;13.70;;;12.40;;
10945;SDS011;5525;42.648;23.368;2022-09-27T11:29:50;15.00;;;13.38;;
10945;SDS011;5525;42.648;23.368;2022-09-27T11:32:29;15.57;;;14.07;;
10945;SDS011;5525;42.648;23.368;2022-09-27T11:35:35;14.90;;;12.63;;
10945;SDS011;5525;42.648;23.368;2022-09-27T11:38:17;14.13;;;12.00;;
10945;SDS011;5525;42.648;23.368;2022-09-27T11:40:56;13.25;;;12.05;;
10945;SDS011;5525;42.648;23.368;2022-09-27T11:43:42;15.00;;;11.43;;
10945;SDS011;5525;42.648;23.368;2022-09-27T11:46:22;11.32;;;10.20;;
10945;SDS011;5525;42.648;23.368;2022-09-27T11:51:55;12.93;;;11.73;;
10945;SDS011;5525;42.648;23.368;2022-09-27T11:54:34;12.02;;;10.82;;
10945;SDS011;5525;42.648;23.368;2022-09-27T11:57:18;10.90;;;9.90;;
10945;SDS011;5525;42.648;23.368;2022-09-27T12:00:04;10.80;;;9.60;;
10945;SDS011;5525;42.648;23.368;2022-09-27T12:05:41;9.18;;;8.38;;
10945;SDS011;5525;42.648;23.368;2022-09-27T12:08:26;7.88;;;7.13;;
10945;SDS011;5525;42.648;23.368;2022-09-27T12:11:04;7.72;;;7.03;;
10945;SDS011;5525;42.648;23.368;2022-09-27T12:13:38;8.25;;;7.00;;
10945;SDS011;5525;42.648;23.368;2022-09-27T12:16:09;11.82;;;8.43;;
10945;SDS011;5525;42.648;23.368;2022-09-27T12:18:38;8.63;;;7.80;;
10945;SDS011;5525;42.648;23.368;2022-09-27T12:21:08;6.78;;;5.78;;
10945;SDS011;5525;42.648;23.368;2022-09-27T12:23:40;6.57;;;5.70;;
10945;SDS011;5525;42.648;23.368;2022-09-27T12:26:10;6.63;;;5.93;;
10945;SDS011;5525;42.648;23.368;2022-09-27T12:28:43;6.40;;;5.80;;
10945;SDS011;5525;42.648;23.368;2022-09-27T12:31:17;5.78;;;5.28;;
10945;SDS011;5525;42.648;23.368;2022-09-27T12:33:52;6.35;;;5.75;;
10945;SDS011;5525;42.648;23.368;2022-09-27T12:36:29;6.45;;;5.45;;
10945;SDS011;5525;42.648;23.368;2022-09-27T12:39:03;5.57;;;4.70;;
10945;SDS011;5525;42.648;23.368;2022-09-27T12:41:37;5.43;;;4.70;;
10945;SDS011;5525;42.648;23.368;2022-09-27T12:44:07;5.80;;;4.80;;
10945;SDS011;5525;42.648;23.368;2022-09-27T12:46:38;5.72;;;5.10;;
10945;SDS011;5525;42.648;23.368;2022-09-27T12:49:21;5.53;;;4.90;;
10945;SDS011;5525;42.648;23.368;2022-09-27T12:51:54;5.13;;;4.72;;
10945;SDS011;5525;42.648;23.368;2022-09-27T12:54:39;4.38;;;4.07;;
10945;SDS011;5525;42.648;23.368;2022-09-27T12:57:29;5.13;;;4.28;;
10945;SDS011;5525;42.648;23.368;2022-09-27T13:00:04;4.15;;;3.80;;
10945;SDS011;5525;42.648;23.368;2022-09-27T13:05:43;4.90;;;4.40;;
10945;SDS011;5525;42.648;23.368;2022-09-27T13:11:38;6.22;;;4.18;;
10945;SDS011;5525;42.648;23.368;2022-09-27T13:14:13;4.60;;;4.10;;
10945;SDS011;5525;42.648;23.368;2022-09-27T13:16:46;5.13;;;4.00;;
10945;SDS011;5525;42.648;23.368;2022-09-27T13:19:36;3.80;;;3.50;;
10945;SDS011;5525;42.648;23.368;2022-09-27T13:22:07;4.00;;;3.70;;
10945;SDS011;5525;42.648;23.368;2022-09-27T13:24:39;3.70;;;3.40;;
10945;SDS011;5525;42.648;23.368;2022-09-27T13:33:27;3.92;;;3.50;;
10945;SDS011;5525;42.648;23.368;2022-09-27T13:38:52;3.83;;;3.40;;
10945;SDS011;5525;42.648;23.368;2022-09-27T13:41:31;4.35;;;3.50;;
10945;SDS011;5525;42.648;23.368;2022-09-27T13:44:09;5.00;;;3.65;;
10945;SDS011;5525;42.648;23.368;2022-09-27T13:46:45;3.35;;;3.05;;
10945;SDS011;5525;42.648;23.368;2022-09-27T13:49:18;6.68;;;3.28;;
10945;SDS011;5525;42.648;23.368;2022-09-27T13:51:54;4.38;;;2.70;;
10945;SDS011;5525;42.648;23.368;2022-09-27T13:54:35;3.45;;;3.13;;
10945;SDS011;5525;42.648;23.368;2022-09-27T14:00:18;3.55;;;2.20;;
10945;SDS011;5525;42.648;23.368;2022-09-27T14:02:54;2.50;;;2.30;;
10945;SDS011;5525;42.648;23.368;2022-09-27T14:05:29;1.80;;;1.55;;
10945;SDS011;5525;42.648;23.368;2022-09-27T14:08:03;2.97;;;2.50;;
10945;SDS011;5525;42.648;23.368;2022-09-27T14:10:32;4.45;;;3.70;;
10945;SDS011;5525;42.648;23.368;2022-09-27T14:13:01;5.93;;;4.22;;
10945;SDS011;5525;42.648;23.368;2022-09-27T14:15:31;5.50;;;3.45;;
10945;SDS011;5525;42.648;23.368;2022-09-27T14:17:59;5.07;;;3.83;;
10945;SDS011;5525;42.648;23.368;2022-09-27T14:20:32;4.70;;;4.40;;
10945;SDS011;5525;42.648;23.368;2022-09-27T14:23:01;4.55;;;3.78;;
10945;SDS011;5525;42.648;23.368;2022-09-27T14:25:28;4.90;;;4.40;;
10945;SDS011;5525;42.648;23.368;2022-09-27T14:27:55;6.63;;;4.18;;
10945;SDS011;5525;42.648;23.368;2022-09-27T14:30:25;7.68;;;4.22;;
10945;SDS011;5525;42.648;23.368;2022-09-27T14:32:54;3.90;;;2.45;;
10945;SDS011;5525;42.648;23.368;2022-09-27T14:35:24;3.28;;;2.92;;
10945;SDS011;5525;42.648;23.368;2022-09-27T14:38:12;4.18;;;3.53;;
10945;SDS011;5525;42.648;23.368;2022-09-27T14:40:41;4.88;;;3.70;;
10945;SDS011;5525;42.648;23.368;2022-09-27T14:43:12;4.30;;;3.65;;
10945;SDS011;5525;42.648;23.368;2022-09-27T14:45:42;3.92;;;3.35;;
10945;SDS011;5525;42.648;23.368;2022-09-27T14:48:19;5.72;;;3.40;;
10945;SDS011;5525;42.648;23.368;2022-09-27T14:50:55;4.85;;;3.33;;
10945;SDS011;5525;42.648;23.368;2022-09-27T14:53:27;4.05;;;3.05;;
10945;SDS011;5525;42.648;23.368;2022-09-27T14:55:56;4.10;;;3.45;;
10945;SDS011;5525;42.648;23.368;2022-09-27T14:58:24;4.57;;;3.20;;
10945;SDS011;5525;42.648;23.368;2022-09-27T15:00:52;4.97;;;3.10;;
10945;SDS011;5525;42.648;23.368;2022-09-27T15:03:22;3.90;;;3.50;;
10945;SDS011;5525;42.648;23.368;2022-09-27T15:05:50;3.80;;;3.20;;
10945;SDS011;5525;42.648;23.368;2022-09-27T15:08:19;3.53;;;3.22;;
10945;SDS011;5525;42.648;23.368;2022-09-27T15:10:50;8.45;;;3.72;;
10945;SDS011;5525;42.648;23.368;2022-09-27T15:13:18;7.57;;;4.00;;
10945;SDS011;5525;42.648;23.368;2022-09-27T15:15:46;4.40;;;3.60;;
10945;SDS011;5525;42.648;23.368;2022-09-27T15:18:30;3.60;;;1.75;;
10945;SDS011;5525;42.648;23.368;2022-09-27T15:20:59;3.00;;;1.02;;
10945;SDS011;5525;42.648;23.368;2022-09-27T15:23:27;1.60;;;1.40;;
10945;SDS011;5525;42.648;23.368;2022-09-27T15:25:59;2.50;;;1.30;;
10945;SDS011;5525;42.648;23.368;2022-09-27T15:28:33;4.03;;;1.85;;
10945;SDS011;5525;42.648;23.368;2022-09-27T15:31:02;6.38;;;2.13;;